createdAt,value
2023-04-09T00:00:30.853Z,7.000000
2023-04-09T00:05:33.165Z,7.000000
2023-04-09T00:10:35.577Z,7.000000
2023-04-09T00:15:29.897Z,7.000000
2023-04-09T00:20:20.090Z,7.533333
2023-04-09T00:25:22.232Z,9.000000
2023-04-09T00:30:24.094Z,8.400000
2023-04-09T00:35:26.276Z,6.000000
2023-04-09T00:40:28.153Z,6.266667
2023-04-09T00:45:30.276Z,7.000000
2023-04-09T00:50:32.732Z,7.000000
2023-04-09T00:55:34.395Z,7.000000
2023-04-09T01:00:16.940Z,7.000000
2023-04-09T01:05:19.325Z,7.000000
2023-04-09T01:10:21.354Z,7.000000
2023-04-09T01:15:23.403Z,7.000000
2023-04-09T01:20:25.547Z,6.800000
2023-04-09T01:25:27.541Z,6.000000
2023-04-09T01:30:29.615Z,6.266667
2023-04-09T01:35:31.788Z,7.000000
2023-04-09T01:40:34.222Z,7.533333
2023-04-09T01:45:16.356Z,9.000000
2023-04-09T01:50:19.064Z,8.466667
2023-04-09T01:55:21.502Z,7.000000
2023-04-09T02:00:23.742Z,7.000000
2023-04-09T02:05:25.791Z,7.000000
2023-04-09T02:10:27.699Z,7.533333
2023-04-09T02:15:29.694Z,9.000000
2023-04-09T02:20:31.880Z,9.266667
2023-04-09T02:25:34.311Z,10.000000
2023-04-09T02:30:16.169Z,9.733333
2023-04-09T02:35:18.566Z,9.000000
2023-04-09T02:40:21.054Z,9.800000
2023-04-09T02:45:22.947Z,12.000000
2023-04-09T02:50:25.051Z,11.200000
2023-04-09T02:55:27.383Z,8.000000
2023-04-09T03:00:29.624Z,8.533333
2023-04-09T03:05:32.219Z,10.000000
2023-04-09T03:10:34.605Z,12.666667
2023-04-09T03:15:16.319Z,20.000000
2023-04-09T03:20:18.633Z,20.266667
2023-04-09T03:25:20.926Z,21.000000
2023-04-09T03:30:23.562Z,20.357143
2023-04-09T03:35:26.412Z,18.000000
2023-04-09T03:40:28.653Z,16.400000
2023-04-09T03:45:31.127Z,12.000000
2023-04-09T03:50:33.246Z,12.266667
2023-04-09T03:55:35.453Z,13.000000
2023-04-09T04:00:17.408Z,11.933333
2023-04-09T04:05:19.492Z,9.000000
2023-04-09T04:10:21.860Z,10.600000
2023-04-09T04:15:23.843Z,15.000000
2023-04-09T04:20:25.867Z,15.000000
2023-04-09T04:25:27.983Z,15.000000
2023-04-09T04:30:30.048Z,15.000000
2023-04-09T04:35:32.254Z,15.000000
2023-04-09T04:40:34.431Z,14.200000
2023-04-09T04:45:16.429Z,12.000000
2023-04-09T04:50:18.509Z,11.733333
2023-04-09T04:55:20.385Z,11.000000
2023-04-09T05:00:22.423Z,11.214286
2023-04-09T05:05:24.299Z,12.000000
2023-04-09T05:10:26.459Z,12.600000
2023-04-09T05:15:29.101Z,15.000000
2023-04-09T05:20:31.062Z,14.466667
2023-04-09T05:25:33.249Z,13.000000
2023-04-09T05:30:35.989Z,14.066667
2023-04-09T05:35:18.173Z,17.000000
2023-04-09T05:40:20.126Z,17.800000
2023-04-09T05:45:22.246Z,20.000000
2023-04-09T05:50:24.666Z,19.200000
2023-04-09T05:55:26.735Z,16.000000
2023-04-09T06:00:28.748Z,16.266667
2023-04-09T06:05:31.096Z,17.000000
2023-04-09T06:10:33.399Z,17.266667
2023-04-09T06:15:35.511Z,18.000000
2023-04-09T06:20:17.402Z,18.266667
2023-04-09T06:25:19.796Z,19.000000
2023-04-09T06:30:21.888Z,18.733333
2023-04-09T06:35:24.334Z,18.000000
2023-04-09T06:40:26.420Z,18.200000
2023-04-09T06:45:28.186Z,19.000000
2023-04-09T06:50:30.423Z,19.533333
2023-04-09T06:55:32.655Z,21.000000
2023-04-09T07:00:34.877Z,21.533333
2023-04-09T07:05:17.108Z,23.000000
2023-04-09T07:10:19.390Z,22.200000
2023-04-09T07:15:22.061Z,20.000000
2023-04-09T07:20:24.111Z,19.800000
2023-04-09T07:25:26.448Z,19.000000
2023-04-09T07:30:28.377Z,20.600000
2023-04-09T07:35:30.569Z,25.000000
2023-04-09T07:40:32.737Z,24.733333
2023-04-09T07:45:35.005Z,24.000000
2023-04-09T07:50:16.984Z,26.133333
2023-04-09T07:55:19.401Z,32.000000
2023-04-09T08:00:21.923Z,32.000000
2023-04-09T08:05:23.912Z,32.000000
2023-04-09T08:10:25.854Z,32.400000
2023-04-09T08:15:28.277Z,34.000000
2023-04-09T08:20:30.233Z,34.800000
2023-04-09T08:25:32.248Z,37.000000
2023-04-09T08:30:33.997Z,36.733333
2023-04-09T08:35:16.113Z,36.000000
2023-04-09T08:40:18.761Z,35.733333
2023-04-09T08:45:21.122Z,35.000000
2023-04-09T08:50:23.647Z,35.642857
2023-04-09T08:55:26.225Z,38.000000
2023-04-09T09:00:28.505Z,37.200000
2023-04-09T09:05:30.377Z,35.000000
2023-04-09T09:10:32.658Z,35.533333
2023-04-09T09:15:34.626Z,37.000000
2023-04-09T09:20:16.583Z,36.466667
2023-04-09T09:25:19.118Z,35.000000
2023-04-09T09:30:21.587Z,34.733333
2023-04-09T09:35:23.639Z,34.000000
2023-04-09T09:40:25.675Z,34.600000
2023-04-09T09:45:27.884Z,37.000000
2023-04-09T09:50:30.424Z,38.066667
2023-04-09T09:55:32.431Z,41.000000
2023-04-09T10:00:34.516Z,39.666667
2023-04-09T10:05:16.475Z,36.000000
2023-04-09T10:10:18.737Z,36.533333
2023-04-09T10:15:20.742Z,38.000000
2023-04-09T10:20:22.980Z,39.285714
2023-04-09T10:25:25.181Z,44.000000
2023-04-09T10:30:27.379Z,43.200000
2023-04-09T10:35:29.581Z,41.000000
2023-04-09T10:40:31.706Z,40.200000
2023-04-09T10:45:33.672Z,38.000000
2023-04-09T10:50:35.852Z,39.866667
2023-04-09T10:55:18.242Z,45.000000
2023-04-09T11:00:20.581Z,42.333333
2023-04-09T11:05:22.662Z,35.000000
2023-04-09T11:10:25.581Z,34.200000
2023-04-09T11:15:27.778Z,31.000000
2023-04-09T11:20:29.857Z,28.600000
2023-04-09T11:25:32.113Z,22.000000
2023-04-09T11:30:34.472Z,27.600000
2023-04-09T11:35:16.617Z,43.000000
2023-04-09T11:40:19.177Z,40.333333
2023-04-09T11:45:21.200Z,33.000000
2023-04-09T11:50:23.877Z,32.571429
2023-04-09T11:55:26.164Z,31.000000
2023-04-09T12:00:28.594Z,31.266667
2023-04-09T12:05:30.660Z,32.000000
2023-04-09T12:10:33.147Z,31.466667
2023-04-09T12:15:35.087Z,30.000000
2023-04-09T12:20:17.282Z,30.266667
2023-04-09T12:25:19.236Z,31.000000
2023-04-09T12:30:21.655Z,33.933333
2023-04-09T12:35:23.989Z,42.000000
2023-04-09T12:40:25.876Z,41.600000
2023-04-09T12:45:27.902Z,40.000000
2023-04-09T12:50:30.210Z,38.933333
2023-04-09T12:55:32.195Z,36.000000
2023-04-09T13:00:34.479Z,34.933333
2023-04-09T13:05:16.289Z,32.000000
2023-04-09T13:10:18.596Z,32.533333
2023-04-09T13:15:20.527Z,34.000000
2023-04-09T13:20:22.774Z,35.285714
2023-04-09T13:25:24.659Z,40.000000
2023-04-09T13:30:26.716Z,41.600000
2023-04-09T13:35:29.075Z,48.000000
2023-04-09T13:40:31.171Z,48.533333
2023-04-09T13:45:33.441Z,50.000000
2023-04-09T13:50:36.123Z,51.066667
2023-04-09T13:55:17.552Z,54.000000
2023-04-09T14:00:20.152Z,54.266667
2023-04-09T14:05:22.794Z,55.000000
2023-04-09T14:10:24.974Z,54.600000
2023-04-09T14:15:27.114Z,53.000000
2023-04-09T14:20:29.205Z,53.800000
2023-04-09T14:25:31.324Z,56.000000
2023-04-09T14:30:33.560Z,55.200000
2023-04-09T14:35:35.782Z,53.000000
2023-04-09T14:40:17.689Z,47.666667
2023-04-09T14:45:20.113Z,33.000000
2023-04-09T14:50:22.640Z,30.000000
2023-04-09T14:55:25.425Z,19.000000
2023-04-09T15:00:28.167Z,18.466667
2023-04-09T15:05:30.781Z,17.000000
2023-04-09T15:10:33.193Z,16.466667
2023-04-09T15:15:35.462Z,15.000000
2023-04-09T15:20:17.165Z,15.000000
2023-04-09T15:25:19.800Z,15.000000
2023-04-09T15:30:21.871Z,15.266667
2023-04-09T15:35:24.000Z,16.000000
2023-04-09T15:40:26.506Z,15.200000
2023-04-09T15:45:28.524Z,12.000000
2023-04-09T15:50:30.611Z,13.066667
2023-04-09T15:55:33.444Z,16.000000
2023-04-09T16:00:35.466Z,15.466667
2023-04-09T16:05:17.347Z,14.000000
2023-04-09T16:10:19.598Z,13.466667
2023-04-09T16:15:21.722Z,12.000000
2023-04-09T16:20:23.962Z,12.214286
2023-04-09T16:25:26.056Z,13.000000
2023-04-09T16:30:28.486Z,11.133333
2023-04-09T16:35:30.152Z,6.000000
2023-04-09T16:40:32.150Z,7.866667
2023-04-09T16:45:34.426Z,13.000000
2023-04-09T16:50:16.419Z,13.266667
2023-04-09T16:55:18.688Z,14.000000
2023-04-09T17:00:20.696Z,14.000000
2023-04-09T17:05:22.780Z,14.000000
2023-04-09T17:10:24.892Z,13.600000
2023-04-09T17:15:27.290Z,12.000000
2023-04-09T17:20:29.578Z,11.733333
2023-04-09T17:25:31.538Z,11.000000
2023-04-09T17:30:33.597Z,12.066667
2023-04-09T17:35:35.803Z,15.000000
2023-04-09T17:40:17.773Z,14.466667
2023-04-09T17:45:20.031Z,13.000000
2023-04-09T17:50:22.327Z,13.642857
2023-04-09T17:55:24.260Z,16.000000
2023-04-09T18:00:26.267Z,15.600000
2023-04-09T18:05:28.886Z,14.000000
2023-04-09T18:10:30.874Z,13.733333
2023-04-09T18:15:32.962Z,13.000000
2023-04-09T18:20:16.114Z,13.000000
2023-04-09T18:25:18.817Z,13.000000
2023-04-09T18:30:21.133Z,11.400000
2023-04-09T18:35:23.233Z,7.000000
2023-04-09T18:40:25.341Z,7.600000
2023-04-09T18:45:27.480Z,10.000000
2023-04-09T18:50:29.802Z,10.266667
2023-04-09T18:55:31.708Z,11.000000
2023-04-09T19:00:33.969Z,11.266667
2023-04-09T19:05:15.998Z,12.000000
2023-04-09T19:10:18.186Z,11.466667
2023-04-09T19:15:20.453Z,10.000000
2023-04-09T19:20:22.694Z,9.785714
2023-04-09T19:25:24.782Z,9.000000
2023-04-09T19:30:26.927Z,8.800000
2023-04-09T19:35:29.120Z,8.000000
2023-04-09T19:40:31.262Z,8.000000
2023-04-09T19:45:33.498Z,8.000000
2023-04-09T19:50:35.600Z,7.733333
2023-04-09T19:55:17.399Z,7.000000
2023-04-09T20:00:19.598Z,7.266667
2023-04-09T20:05:21.695Z,8.000000
2023-04-09T20:10:23.838Z,7.785714
2023-04-09T20:15:25.974Z,7.000000
2023-04-09T20:20:28.023Z,7.000000
2023-04-09T20:25:30.122Z,7.000000
2023-04-09T20:30:32.636Z,7.000000
2023-04-09T20:35:34.366Z,7.000000
2023-04-09T20:40:16.563Z,7.800000
2023-04-09T20:45:18.534Z,10.000000
2023-04-09T20:50:20.807Z,9.733333
2023-04-09T20:55:22.932Z,9.000000
2023-04-09T21:00:25.207Z,9.000000
2023-04-09T21:05:27.207Z,9.000000
2023-04-09T21:10:29.311Z,7.666667
2023-04-09T21:15:31.396Z,4.000000
2023-04-09T21:20:33.911Z,4.800000
2023-04-09T21:25:35.512Z,7.000000
2023-04-09T21:30:17.544Z,7.266667
2023-04-09T21:35:19.653Z,8.000000
2023-04-09T21:40:22.109Z,8.000000
2023-04-09T21:45:24.213Z,8.000000
2023-04-09T21:50:26.266Z,7.200000
2023-04-09T21:55:28.593Z,4.000000
2023-04-09T22:00:30.907Z,4.800000
2023-04-09T22:05:33.010Z,7.000000
2023-04-09T22:10:34.961Z,7.000000
2023-04-09T22:15:16.953Z,7.000000
2023-04-09T22:20:19.058Z,7.000000
2023-04-09T22:25:21.235Z,7.000000
2023-04-09T22:30:23.336Z,7.000000
2023-04-09T22:35:25.568Z,7.000000
2023-04-09T22:40:27.368Z,6.733333
2023-04-09T22:45:29.251Z,6.000000
2023-04-09T22:50:31.513Z,6.000000
2023-04-09T22:55:34.564Z,6.000000
2023-04-09T23:00:16.327Z,6.000000
2023-04-09T23:05:18.444Z,6.000000
2023-04-09T23:10:20.510Z,6.000000
2023-04-09T23:15:22.478Z,6.000000
2023-04-09T23:20:24.494Z,6.000000
2023-04-09T23:25:26.754Z,6.000000
2023-04-09T23:30:29.209Z,6.266667
2023-04-09T23:35:31.205Z,7.000000
2023-04-09T23:40:33.260Z,7.000000
2023-04-09T23:45:35.668Z,7.000000
2023-04-09T23:50:17.558Z,7.000000
2023-04-09T23:55:19.548Z,7.000000
